Time;durP1;ratioP1;P1;durP2;ratioP2;P2;SDS_P1;SDS_P2;PMS_P1;PMS_P2;Temp;Humidity;BMP_temperature;BMP_pressure;BME280_temperature;BME280_humidity;BME280_pressure;Samples;Min_cycle;Max_cycle;Signal;HPM_P1;HPM_P2
2023/10/13 00:00:36;;;;;;;10.82;4.88;;;20.70;99.90;;;;;;4265420;27;20046;-55
2023/10/13 00:02:39;;;;;;;21.50;5.10;;;20.70;99.90;;;;;;4265516;27;20437;-55
2023/10/13 00:04:42;;;;;;;12.40;4.00;;;20.80;99.90;;;;;;4265489;27;20069;-54
2023/10/13 00:06:45;;;;;;;14.05;4.30;;;20.80;99.90;;;;;;4265322;27;20126;-56
2023/10/13 00:08:47;;;;;;;15.38;4.80;;;20.80;99.90;;;;;;4265208;27;20042;-54
2023/10/13 00:10:50;;;;;;;18.63;5.05;;;20.80;99.90;;;;;;4265022;27;20042;-55
2023/10/13 00:12:53;;;;;;;18.90;5.05;;;20.80;99.90;;;;;;4265106;27;20066;-55
2023/10/13 00:14:55;;;;;;;10.18;3.83;;;20.80;99.90;;;;;;4265097;27;20042;-55
2023/10/13 00:17:20;;;;;;;15.15;4.28;;;20.80;99.90;;;;;;4264528;27;20042;-55
2023/10/13 00:19:24;;;;;;;14.35;4.57;;;20.80;99.90;;;;;;4265203;27;20051;-54
2023/10/13 00:21:32;;;;;;;15.27;4.82;;;20.80;99.90;;;;;;4265165;27;20047;-54
2023/10/13 00:23:34;;;;;;;14.20;4.30;;;20.80;99.90;;;;;;4265152;27;20112;-56
2023/10/13 00:25:49;;;;;;;16.25;4.53;;;20.80;99.90;;;;;;4264691;27;20105;-58
2023/10/13 00:27:53;;;;;;;16.58;4.47;;;20.70;99.90;;;;;;4265021;27;20456;-57
2023/10/13 00:32:20;;;;;;;12.82;4.55;;;20.70;99.90;;;;;;4264978;27;20145;-56
2023/10/13 00:34:28;;;;;;;14.95;5.10;;;20.80;99.90;;;;;;4265082;27;20051;-57
2023/10/13 00:36:31;;;;;;;19.90;5.18;;;20.70;99.90;;;;;;4264954;27;20047;-57
2023/10/13 00:38:35;;;;;;;13.48;4.93;;;20.70;99.90;;;;;;4264920;27;20039;-56
2023/10/13 00:42:51;;;;;;;11.65;4.50;;;20.70;99.90;;;;;;4264923;27;20039;-56
2023/10/13 00:44:54;;;;;;;16.27;4.55;;;20.70;99.90;;;;;;4264560;27;20070;-57
2023/10/13 00:46:56;;;;;;;15.38;4.47;;;20.70;99.90;;;;;;4264806;27;20054;-57
2023/10/13 00:48:58;;;;;;;12.82;3.88;;;20.70;99.90;;;;;;4264475;27;20125;-57
2023/10/13 00:51:06;;;;;;;14.98;4.30;;;20.70;99.90;;;;;;4264730;27;20053;-57
2023/10/13 00:53:09;;;;;;;12.82;4.47;;;20.70;99.90;;;;;;4264664;27;20039;-58
2023/10/13 00:55:13;;;;;;;16.33;4.55;;;20.70;99.90;;;;;;4264536;27;20051;-57
2023/10/13 00:57:28;;;;;;;19.33;5.13;;;20.70;99.90;;;;;;4264473;27;20098;-56
2023/10/13 00:59:36;;;;;;;12.82;4.50;;;20.70;99.90;;;;;;4264797;27;20118;-57
2023/10/13 01:01:42;;;;;;;8.80;4.07;;;20.60;99.90;;;;;;4264442;27;20051;-57
2023/10/13 01:03:55;;;;;;;20.70;5.13;;;20.60;99.90;;;;;;4264508;27;20073;-57
2023/10/13 01:06:03;;;;;;;16.45;5.30;;;20.60;99.90;;;;;;4247252;27;20051;-57
2023/10/13 01:08:11;;;;;;;17.50;5.18;;;20.60;99.90;;;;;;4264739;27;20503;-61
2023/10/13 01:10:15;;;;;;;15.60;5.35;;;20.60;99.90;;;;;;4264414;27;20050;-58
2023/10/13 01:12:17;;;;;;;12.20;4.32;;;20.60;99.90;;;;;;4264855;27;20047;-58
2023/10/13 01:14:20;;;;;;;13.93;5.18;;;20.50;99.90;;;;;;4264853;27;20430;-57
2023/10/13 01:16:23;;;;;;;13.55;4.72;;;20.50;99.90;;;;;;4264741;27;20050;-57
2023/10/13 01:18:28;;;;;;;17.30;5.03;;;20.50;99.90;;;;;;4264196;27;20096;-57
2023/10/13 01:20:42;;;;;;;13.75;4.40;;;20.50;99.90;;;;;;4264444;27;20134;-57
2023/10/13 01:22:49;;;;;;;17.20;4.90;;;20.50;99.90;;;;;;4264851;27;20373;-57
2023/10/13 01:25:04;;;;;;;17.98;5.75;;;20.50;99.90;;;;;;4264276;27;20070;-56
2023/10/13 01:29:13;;;;;;;18.70;5.78;;;20.50;99.90;;;;;;4264461;27;20076;-56
2023/10/13 01:31:26;;;;;;;20.98;5.22;;;20.50;99.90;;;;;;4264561;27;20070;-57
2023/10/13 01:33:28;;;;;;;20.33;5.82;;;20.50;99.90;;;;;;4264358;27;20053;-57
2023/10/13 01:35:42;;;;;;;13.65;5.20;;;20.50;99.90;;;;;;4264566;27;20057;-58
2023/10/13 01:37:44;;;;;;;16.40;5.85;;;20.50;99.90;;;;;;4264014;27;20043;-57
2023/10/13 01:39:49;;;;;;;16.63;5.32;;;20.50;99.90;;;;;;4264452;27;20042;-57
2023/10/13 01:41:56;;;;;;;22.65;6.88;;;20.50;99.90;;;;;;4264500;27;20073;-57
2023/10/13 01:43:58;;;;;;;19.48;5.78;;;20.40;99.90;;;;;;4264481;27;20456;-57
2023/10/13 01:46:03;;;;;;;14.55;5.68;;;20.50;99.90;;;;;;4264359;27;20043;-57
2023/10/13 01:48:07;;;;;;;13.73;5.10;;;20.40;99.90;;;;;;4264391;27;20118;-57
2023/10/13 01:50:20;;;;;;;21.67;5.05;;;20.50;99.90;;;;;;4264377;27;20118;-57
2023/10/13 01:52:24;;;;;;;16.85;5.68;;;20.40;99.90;;;;;;4263781;27;20133;-57
2023/10/13 01:54:26;;;;;;;20.27;6.40;;;20.40;99.90;;;;;;4264336;27;20528;-58
2023/10/13 01:56:30;;;;;;;17.17;6.35;;;20.50;99.90;;;;;;4264072;27;20039;-57
2023/10/13 01:58:34;;;;;;;16.33;6.38;;;20.40;99.90;;;;;;4264193;27;20070;-57
2023/10/13 02:00:41;;;;;;;16.92;6.28;;;20.40;99.90;;;;;;4264220;27;20114;-57
2023/10/13 02:02:45;;;;;;;15.15;5.38;;;20.40;99.90;;;;;;4266847;27;20051;-57
2023/10/13 02:04:57;;;;;;;19.02;6.40;;;20.40;99.90;;;;;;4267142;27;20099;-57
2023/10/13 02:06:59;;;;;;;18.35;5.65;;;20.40;99.90;;;;;;4266874;27;20049;-57
2023/10/13 02:09:10;;;;;;;13.75;5.18;;;20.40;99.90;;;;;;4266974;27;20137;-57
2023/10/13 02:11:12;;;;;;;16.75;5.72;;;20.40;99.90;;;;;;4267067;27;20051;-57
2023/10/13 02:13:17;;;;;;;19.25;6.47;;;20.40;99.90;;;;;;4267155;27;20450;-57
2023/10/13 02:15:21;;;;;;;16.52;5.63;;;20.40;99.90;;;;;;4267181;27;20452;-57
2023/10/13 02:17:23;;;;;;;16.95;6.00;;;20.40;99.90;;;;;;4266928;27;20495;-57
2023/10/13 02:19:27;;;;;;;22.00;5.97;;;20.30;99.90;;;;;;4267199;27;20495;-57
2023/10/13 02:21:31;;;;;;;19.23;5.28;;;20.30;99.90;;;;;;4266815;27;20042;-57
2023/10/13 02:23:38;;;;;;;19.38;5.90;;;20.40;99.90;;;;;;4267041;27;20448;-58
2023/10/13 02:25:42;;;;;;;14.35;5.53;;;20.30;99.90;;;;;;4266828;27;20518;-57
2023/10/13 02:27:57;;;;;;;;;;;20.30;99.90;;;;;;4267548;27;20047;-57
2023/10/13 02:29:59;;;;;;;19.40;5.93;;;20.30;99.90;;;;;;4266944;27;19926;-60
2023/10/13 02:32:04;;;;;;;20.08;6.15;;;20.30;99.90;;;;;;4266784;27;20046;-57
2023/10/13 02:34:07;;;;;;;17.15;5.53;;;20.30;99.90;;;;;;4266656;27;20164;-57
2023/10/13 02:36:12;;;;;;;17.83;6.18;;;20.30;99.90;;;;;;4266809;27;20042;-57
2023/10/13 02:38:16;;;;;;;25.75;6.20;;;20.30;99.90;;;;;;4266716;27;20046;-57
2023/10/13 02:40:23;;;;;;;19.83;6.30;;;20.30;99.90;;;;;;4266555;27;20038;-57
2023/10/13 02:42:25;;;;;;;18.73;5.95;;;20.30;99.90;;;;;;4266529;27;20060;-56
2023/10/13 02:44:28;;;;;;;17.77;6.03;;;20.30;99.90;;;;;;4266798;27;20121;-57
2023/10/13 02:46:30;;;;;;;17.15;5.50;;;20.30;99.90;;;;;;4266628;27;20046;-57
2023/10/13 02:48:40;;;;;;;21.33;6.35;;;20.20;99.90;;;;;;4266701;27;20134;-55
2023/10/13 02:50:45;;;;;;;21.55;5.85;;;20.30;99.90;;;;;;4266596;27;20046;-54
2023/10/13 02:52:50;;;;;;;19.50;6.82;;;20.30;99.90;;;;;;4266233;27;20103;-55
2023/10/13 02:54:52;;;;;;;15.27;5.38;;;20.20;99.90;;;;;;4266518;27;20106;-54
2023/10/13 02:56:57;;;;;;;20.25;6.13;;;20.20;99.90;;;;;;4266581;27;20100;-55
2023/10/13 02:59:04;;;;;;;21.80;5.50;;;20.20;99.90;;;;;;4266303;27;20412;-55
2023/10/13 03:01:16;;;;;;;20.98;6.15;;;20.20;99.90;;;;;;4266459;27;20468;-56
2023/10/13 03:03:19;;;;;;;16.92;5.55;;;20.20;99.90;;;;;;4266530;27;20380;-55
2023/10/13 03:05:23;;;;;;;15.25;6.13;;;20.20;99.90;;;;;;4265806;27;20075;-55
2023/10/13 03:07:28;;;;;;;19.23;6.45;;;20.20;99.90;;;;;;4266340;27;20046;-56
2023/10/13 03:09:37;;;;;;;12.60;5.07;;;20.10;99.90;;;;;;4247621;27;20039;-56
2023/10/13 03:11:44;;;;;;;18.90;5.57;;;20.10;99.90;;;;;;4266022;27;20412;-56
2023/10/13 03:13:47;;;;;;;16.92;6.63;;;20.10;99.90;;;;;;4266301;27;20049;-56
2023/10/13 03:15:49;;;;;;;14.48;6.13;;;20.10;99.90;;;;;;4266158;27;20070;-56
2023/10/13 03:17:54;;;;;;;21.27;6.20;;;20.10;99.90;;;;;;4266040;27;20053;-55
2023/10/13 03:19:56;;;;;;;18.50;6.00;;;20.10;99.90;;;;;;4265775;27;20072;-55
2023/10/13 03:22:09;;;;;;;20.85;6.53;;;20.10;99.90;;;;;;4265781;27;20034;-56
2023/10/13 03:24:13;;;;;;;20.92;6.32;;;20.10;99.90;;;;;;4266192;27;20441;-56
2023/10/13 03:26:18;;;;;;;19.33;6.20;;;20.10;99.90;;;;;;4266051;27;20039;-56
2023/10/13 03:28:33;;;;;;;20.13;6.30;;;20.10;99.90;;;;;;4265861;27;20047;-55
2023/10/13 03:30:38;;;;;;;22.83;6.55;;;20.00;99.90;;;;;;4265968;27;20061;-55
2023/10/13 03:32:43;;;;;;;17.42;5.78;;;20.00;99.90;;;;;;4265952;27;20049;-58
2023/10/13 03:37:11;;;;;;;16.85;6.28;;;20.00;99.90;;;;;;4265925;27;20070;-56
2023/10/13 03:39:14;;;;;;;19.73;6.30;;;20.00;99.90;;;;;;4265927;27;20141;-56
2023/10/13 03:41:20;;;;;;;19.15;6.40;;;19.90;99.90;;;;;;4265768;27;20113;-56
2023/10/13 03:43:23;;;;;;;14.00;6.13;;;19.90;99.90;;;;;;4265546;27;20193;-56
2023/10/13 03:45:25;;;;;;;22.95;6.72;;;19.90;99.90;;;;;;4247352;27;20542;-56
2023/10/13 03:47:27;;;;;;;21.38;6.53;;;19.90;99.90;;;;;;4265633;27;20133;-56
2023/10/13 03:49:30;;;;;;;21.35;6.80;;;19.90;99.90;;;;;;4265309;27;20049;-56
2023/10/13 03:51:33;;;;;;;15.82;6.50;;;19.90;99.90;;;;;;4265180;27;20043;-56
2023/10/13 03:53:53;;;;;;;13.68;5.82;;;19.90;99.90;;;;;;4265627;27;20541;-55
2023/10/13 03:56:11;;;;;;;14.15;6.05;;;19.90;99.90;;;;;;4265503;27;20047;-55
2023/10/13 03:58:16;;;;;;;26.50;7.15;;;19.90;99.90;;;;;;4265433;27;20407;-55
2023/10/13 04:00:23;;;;;;;18.70;6.20;;;19.90;99.90;;;;;;4265556;27;20042;-58
2023/10/13 04:02:27;;;;;;;25.05;6.82;;;19.90;99.90;;;;;;4265328;27;20057;-56
2023/10/13 04:04:48;;;;;;;23.52;7.13;;;19.80;99.90;;;;;;4265066;27;20038;-57
2023/10/13 04:07:03;;;;;;;15.98;5.97;;;19.90;99.90;;;;;;4265077;27;20512;-58
2023/10/13 04:12:17;;;;;;;17.27;6.05;;;19.80;99.90;;;;;;4195301;28;20135;-55
2023/10/13 04:14:24;;;;;;;19.75;6.40;;;19.80;99.90;;;;;;4195522;28;20461;-55
2023/10/13 04:18:46;;;;;;;21.23;5.65;;;19.80;99.90;;;;;;4194960;28;20044;-58
2023/10/13 04:21:03;;;;;;;21.02;5.93;;;19.90;99.90;;;;;;4195500;28;20493;-56
2023/10/13 04:23:19;;;;;;;15.95;6.10;;;19.90;99.90;;;;;;4195335;28;20163;-58
2023/10/13 04:25:35;;;;;;;14.15;5.75;;;19.90;99.90;;;;;;4194705;28;20048;-58
2023/10/13 04:27:53;;;;;;;22.05;6.15;;;19.90;99.90;;;;;;4195289;28;20076;-58
2023/10/13 04:32:13;;;;;;;19.52;6.60;;;19.90;99.90;;;;;;4194887;28;20044;-58
2023/10/13 04:34:19;;;;;;;22.27;6.07;;;19.90;99.90;;;;;;4195202;28;20048;-55
2023/10/13 04:38:50;;;;;;;18.70;5.72;;;19.90;99.90;;;;;;4195191;28;20079;-55
2023/10/13 04:41:01;;;;;;;23.85;7.00;;;19.90;99.90;;;;;;4195093;28;20045;-56
2023/10/13 04:43:32;;;;;;;18.50;6.07;;;19.90;99.90;;;;;;4195092;28;20547;-55
2023/10/13 04:47:41;;;;;;;18.70;5.60;;;19.90;99.90;;;;;;4199281;28;20075;-58
2023/10/13 04:51:50;;;;;;;15.85;5.72;;;19.80;99.90;;;;;;4247461;27;20486;-56
2023/10/13 04:54:04;;;;;;;22.10;6.47;;;19.90;99.90;;;;;;4247549;27;20058;-59
2023/10/13 05:01:09;;;;;;;20.30;7.00;;;19.80;99.90;;;;;;4247361;28;20115;-58
2023/10/13 05:03:40;;;;;;;21.58;6.60;;;19.90;99.90;;;;;;4229375;28;20048;-58
2023/10/13 05:06:10;;;;;;;15.85;6.60;;;19.80;99.90;;;;;;4247147;28;20043;-58
2023/10/13 05:48:13;;;;;;;15.85;6.85;;;19.90;99.90;;;;;;4267323;27;20039;-57
2023/10/13 06:30:06;;;;;;;14.18;7.35;;;19.70;99.90;;;;;;4266852;27;20050;-56
2023/10/13 06:32:11;;;;;;;15.57;8.63;;;19.70;99.90;;;;;;4267008;27;20519;-56
2023/10/13 06:34:20;;;;;;;20.83;8.63;;;19.70;99.90;;;;;;4266720;27;20043;-56
2023/10/13 06:36:23;;;;;;;14.68;7.68;;;19.70;99.90;;;;;;4266809;27;20050;-55
2023/10/13 06:38:30;;;;;;;13.90;8.43;;;19.80;99.90;;;;;;4266789;27;20504;-56
2023/10/13 06:40:36;;;;;;;21.05;8.32;;;19.80;99.90;;;;;;4266636;27;20088;-56
2023/10/13 06:42:42;;;;;;;11.35;6.85;;;19.80;99.90;;;;;;4266371;27;20417;-56
2023/10/13 06:44:45;;;;;;;19.17;8.65;;;19.80;99.90;;;;;;4267009;27;20050;-58
2023/10/13 06:46:49;;;;;;;15.90;8.73;;;19.80;99.90;;;;;;4266252;27;20125;-55
2023/10/13 06:48:59;;;;;;;20.98;8.55;;;19.80;99.90;;;;;;4266465;27;20043;-58
2023/10/13 06:51:06;;;;;;;19.42;8.75;;;19.80;99.90;;;;;;4266392;27;20042;-58
2023/10/13 06:53:08;;;;;;;15.93;8.25;;;19.80;99.90;;;;;;4266304;27;20050;-58
2023/10/13 06:55:16;;;;;;;18.00;8.57;;;19.90;99.90;;;;;;4266619;27;20342;-58
2023/10/13 06:57:22;;;;;;;15.07;8.07;;;19.90;99.90;;;;;;4266086;27;20117;-58
2023/10/13 06:59:26;;;;;;;12.55;7.55;;;19.90;99.90;;;;;;4266317;27;20046;-58
2023/10/13 07:01:29;;;;;;;11.77;7.10;;;19.90;99.90;;;;;;4266285;27;20051;-58
2023/10/13 07:03:31;;;;;;;17.98;7.93;;;19.90;99.90;;;;;;4266301;27;20038;-58
2023/10/13 07:05:35;;;;;;;13.57;7.28;;;19.90;99.90;;;;;;4266585;27;20046;-58
2023/10/13 07:07:40;;;;;;;16.08;7.47;;;20.00;99.90;;;;;;4266408;27;20129;-58
2023/10/13 07:09:58;;;;;;;15.45;7.53;;;20.00;99.50;;;;;;4266406;27;20471;-57
2023/10/13 07:12:02;;;;;;;22.88;9.05;;;20.00;99.70;;;;;;4265619;27;20394;-59
2023/10/13 07:14:16;;;;;;;15.93;7.05;;;20.00;99.70;;;;;;4266359;27;20043;-58
2023/10/13 07:16:18;;;;;;;13.60;7.25;;;20.00;99.60;;;;;;4266007;27;20051;-58
2023/10/13 07:18:37;;;;;;;17.67;7.50;;;20.00;99.50;;;;;;4266004;27;20053;-61
2023/10/13 07:20:43;;;;;;;11.63;7.25;;;20.10;99.40;;;;;;4266250;27;20429;-59
2023/10/13 07:23:06;;;;;;;15.18;7.03;;;20.10;99.20;;;;;;4247490;27;20060;-58
2023/10/13 07:25:09;;;;;;;14.73;7.85;;;20.10;99.20;;;;;;4265891;27;20081;-58
2023/10/13 07:27:12;;;;;;;15.38;6.95;;;20.10;98.90;;;;;;4265666;27;20057;-57
2023/10/13 07:29:24;;;;;;;15.75;7.35;;;20.20;98.90;;;;;;4265981;27;20043;-58
2023/10/13 07:31:27;;;;;;;16.67;6.38;;;20.20;98.70;;;;;;4247587;27;20047;-58
2023/10/13 07:33:31;;;;;;;14.45;7.65;;;20.20;98.60;;;;;;4266024;27;20137;-58
2023/10/13 07:35:35;;;;;;;12.95;6.72;;;20.20;98.50;;;;;;4265909;27;20046;-57
2023/10/13 07:37:41;;;;;;;17.55;7.63;;;20.30;98.30;;;;;;4265787;27;20043;-56
2023/10/13 07:39:44;;;;;;;19.73;7.18;;;20.30;98.20;;;;;;4265620;27;20051;-56
2023/10/13 07:41:51;;;;;;;14.25;6.88;;;20.30;98.10;;;;;;4265500;27;20114;-56
2023/10/13 07:43:56;;;;;;;14.93;6.57;;;20.30;97.90;;;;;;4265764;27;20066;-57
2023/10/13 07:45:59;;;;;;;13.50;6.90;;;20.30;97.90;;;;;;4266006;27;20050;-57
2023/10/13 07:48:07;;;;;;;21.35;7.15;;;20.40;97.70;;;;;;4265699;27;20414;-56
2023/10/13 07:50:09;;;;;;;15.63;7.47;;;20.30;97.60;;;;;;4265578;27;20078;-56
2023/10/13 07:52:18;;;;;;;11.50;6.50;;;20.40;97.70;;;;;;4265284;27;20320;-58
2023/10/13 07:54:23;;;;;;;14.57;5.90;;;20.50;97.60;;;;;;4265712;27;20055;-57
2023/10/13 07:56:30;;;;;;;;;;;20.40;97.50;;;;;;4265793;27;20043;-56
2023/10/13 07:58:32;;;;;;;14.48;6.55;;;20.40;97.20;;;;;;4265244;27;20382;-56
2023/10/13 08:02:48;;;;;;;;;;;20.50;97.40;;;;;;4265874;27;20047;-56
2023/10/13 08:04:51;;;;;;;16.95;6.72;;;20.50;97.00;;;;;;4265342;27;19919;-57
2023/10/13 08:07:02;;;;;;;11.75;6.82;;;20.50;97.40;;;;;;4265049;27;20049;-57
2023/10/13 08:09:08;;;;;;;11.50;7.05;;;20.50;97.20;;;;;;4265045;27;20038;-58
2023/10/13 08:11:24;;;;;;;16.42;6.95;;;20.60;97.20;;;;;;4264953;27;20122;-55
2023/10/13 08:13:28;;;;;;;15.57;6.40;;;20.60;97.00;;;;;;4265191;27;20121;-56
2023/10/13 08:15:33;;;;;;;13.95;7.10;;;20.70;96.80;;;;;;4265019;27;20553;-56
2023/10/13 08:17:35;;;;;;;15.23;6.68;;;20.70;96.90;;;;;;4265256;27;20061;-56
2023/10/13 08:19:45;;;;;;;14.63;7.32;;;20.80;96.70;;;;;;4265051;27;20477;-56
2023/10/13 08:21:58;;;;;;;14.30;6.78;;;20.90;96.60;;;;;;4265034;27;20122;-56
2023/10/13 08:24:06;;;;;;;13.43;6.22;;;20.90;96.50;;;;;;4264774;27;20043;-55
2023/10/13 08:26:29;;;;;;;17.38;6.97;;;21.00;96.40;;;;;;4265109;27;20039;-56
2023/10/13 08:31:14;;;;;;;17.65;7.75;;;21.10;96.10;;;;;;4264899;27;20095;-57
2023/10/13 08:33:23;;;;;;;18.75;6.60;;;21.10;96.20;;;;;;4264621;27;20038;-57
2023/10/13 08:35:35;;;;;;;16.00;6.45;;;21.10;95.90;;;;;;4264930;27;20099;-55
2023/10/13 08:42:34;;;;;;;9.10;6.07;;;21.30;95.60;;;;;;4264617;27;20126;-57
2023/10/13 08:44:39;;;;;;;12.57;6.60;;;21.30;95.70;;;;;;4265005;27;20042;-56
2023/10/13 08:47:05;;;;;;;12.40;5.78;;;21.40;95.70;;;;;;4264667;27;20428;-56
2023/10/13 08:49:14;;;;;;;15.93;6.95;;;21.40;95.40;;;;;;4264797;27;20087;-56
2023/10/13 08:51:31;;;;;;;15.90;7.72;;;21.40;95.30;;;;;;4264791;27;20091;-57
2023/10/13 08:53:44;;;;;;;15.50;7.13;;;21.50;95.20;;;;;;4264286;27;20047;-58
2023/10/13 08:56:02;;;;;;;58.67;7.70;;;21.50;95.00;;;;;;4264681;27;20053;-56
2023/10/13 08:58:13;;;;;;;20.20;7.50;;;21.60;95.60;;;;;;4246538;27;20074;-56
2023/10/13 09:00:28;;;;;;;12.68;6.35;;;21.60;96.20;;;;;;4264878;27;20043;-58
2023/10/13 09:05:36;;;;;;;15.95;6.50;;;21.60;96.30;;;;;;4246930;27;20050;-58
2023/10/13 09:07:25;;;;;;;11.85;5.80;;;21.60;94.80;;;;;;4264175;27;20038;-56
2023/10/13 09:12:08;;;;;;;15.32;5.60;;;21.70;95.30;;;;;;4268394;27;20077;-57
2023/10/13 09:14:32;;;;;;;11.77;5.90;;;21.70;95.10;;;;;;4268219;27;20051;-58
2023/10/13 09:18:47;;;;;;;16.10;6.32;;;21.90;95.30;;;;;;4267881;27;20095;-58
2023/10/13 09:21:25;;;;;;;17.75;5.68;;;21.90;94.60;;;;;;4268151;27;20395;-58
2023/10/13 09:23:24;;;;;;;16.30;5.65;;;21.90;94.20;;;;;;4267604;27;20065;-57
2023/10/13 09:25:33;;;;;;;15.45;5.13;;;21.90;93.60;;;;;;4267802;27;20050;-56
2023/10/13 09:27:37;;;;;;;20.88;6.05;;;22.00;94.30;;;;;;4267990;27;20058;-56
2023/10/13 09:29:41;;;;;;;13.75;5.97;;;22.00;94.00;;;;;;4267863;27;20041;-56
2023/10/13 09:31:48;;;;;;;18.83;5.57;;;22.00;93.50;;;;;;4267800;27;20050;-56
2023/10/13 09:33:51;;;;;;;18.30;5.72;;;22.10;93.60;;;;;;4249295;27;20096;-55
2023/10/13 09:35:53;;;;;;;16.85;5.70;;;22.10;93.40;;;;;;4267608;27;20065;-55
2023/10/13 09:37:59;;;;;;;15.07;5.38;;;22.10;93.40;;;;;;4267335;27;20043;-56
2023/10/13 09:40:07;;;;;;;10.70;5.60;;;22.10;93.30;;;;;;4267835;27;20133;-55
2023/10/13 09:42:10;;;;;;;14.82;5.75;;;22.20;93.20;;;;;;4267836;27;20087;-57
2023/10/13 09:44:12;;;;;;;16.67;5.68;;;22.30;93.50;;;;;;4267348;27;20043;-56
2023/10/13 09:46:23;;;;;;;14.68;6.47;;;22.30;93.40;;;;;;4267909;27;20043;-56
2023/10/13 09:48:34;;;;;;;13.50;6.28;;;22.30;93.10;;;;;;4267735;27;20091;-57
2023/10/13 09:50:40;;;;;;;12.52;6.30;;;22.50;93.00;;;;;;4267388;27;20373;-56
2023/10/13 09:52:45;;;;;;;20.85;6.40;;;22.50;92.80;;;;;;4267472;27;20050;-58
2023/10/13 09:55:01;;;;;;;16.52;5.82;;;22.60;92.80;;;;;;4267556;27;20043;-61
2023/10/13 09:57:15;;;;;;;19.92;6.63;;;22.70;92.40;;;;;;4249406;27;20096;-57
2023/10/13 09:59:35;;;;;;;12.63;6.30;;;22.80;92.60;;;;;;4249446;27;20074;-57
2023/10/13 10:01:50;;;;;;;14.67;5.70;;;22.80;92.60;;;;;;4267671;27;20049;-57
2023/10/13 10:04:09;;;;;;;15.93;6.57;;;22.80;92.70;;;;;;4268192;27;20061;-55
2023/10/13 10:06:27;;;;;;;26.58;6.32;;;22.80;92.50;;;;;;4267849;27;20082;-55
2023/10/13 10:08:38;;;;;;;12.80;6.15;;;22.90;92.40;;;;;;4267401;27;20480;-58
2023/10/13 10:10:55;;;;;;;17.88;5.97;;;22.80;92.40;;;;;;4267506;27;20449;-58
2023/10/13 10:13:12;;;;;;;13.52;6.40;;;22.80;92.10;;;;;;4267368;27;20042;-55
2023/10/13 10:15:43;;;;;;;15.60;5.88;;;22.90;92.30;;;;;;4267478;27;20064;-58
2023/10/13 10:17:46;;;;;;;13.25;5.40;;;23.00;92.10;;;;;;4231946;28;20048;-56
2023/10/13 10:19:55;;;;;;;19.92;6.07;;;23.00;91.80;;;;;;4267097;27;20062;-55
2023/10/13 10:22:27;;;;;;;13.25;6.47;;;23.00;91.50;;;;;;4266290;27;20053;-56
2023/10/13 10:24:30;;;;;;;13.45;6.28;;;23.10;92.20;;;;;;4266990;27;20473;-55
2023/10/13 10:26:32;;;;;;;21.10;5.93;;;23.10;91.90;;;;;;4267324;27;20483;-55
2023/10/13 10:28:38;;;;;;;9.02;5.40;;;23.10;91.90;;;;;;4267150;27;20097;-55
2023/10/13 10:30:42;;;;;;;16.55;5.65;;;23.20;91.70;;;;;;4267104;27;20042;-54
2023/10/13 10:32:48;;;;;;;16.80;6.20;;;23.20;91.90;;;;;;4267167;27;20050;-56
2023/10/13 10:35:07;;;;;;;11.55;5.75;;;23.20;91.50;;;;;;4266534;27;20079;-55
2023/10/13 10:37:11;;;;;;;13.23;5.35;;;23.20;91.60;;;;;;4267086;27;20043;-58
2023/10/13 10:39:15;;;;;;;14.40;5.27;;;23.20;91.40;;;;;;4266987;27;20051;-58
2023/10/13 10:41:25;;;;;;;15.48;5.88;;;23.20;91.70;;;;;;4267004;27;20068;-55
2023/10/13 10:43:46;;;;;;;15.13;5.72;;;23.30;91.50;;;;;;4266939;27;20046;-55
2023/10/13 10:45:51;;;;;;;18.05;7.03;;;23.40;91.40;;;;;;4266954;27;20074;-55
2023/10/13 10:47:58;;;;;;;14.00;5.85;;;23.40;91.60;;;;;;4266669;27;20468;-56
2023/10/13 10:50:18;;;;;;;23.23;5.82;;;23.40;91.40;;;;;;4266207;27;20042;-56
2023/10/13 10:52:21;;;;;;;11.10;5.30;;;23.50;91.40;;;;;;4266512;27;20058;-56
2023/10/13 10:54:29;;;;;;;14.85;5.85;;;23.50;91.40;;;;;;4266787;27;20205;-55
2023/10/13 10:58:43;;;;;;;15.95;6.28;;;23.50;91.40;;;;;;4266741;27;20047;-61
2023/10/13 11:00:46;;;;;;;10.70;5.15;;;23.60;91.20;;;;;;4258434;27;20403;-57
2023/10/13 11:02:54;;;;;;;8.95;5.22;;;23.60;91.30;;;;;;4251296;27;20039;-55
2023/10/13 11:04:57;;;;;;;14.93;5.78;;;23.60;91.20;;;;;;4249565;27;20051;-55
2023/10/13 11:07:02;;;;;;;12.77;5.47;;;23.60;91.30;;;;;;4249990;27;20046;-55
2023/10/13 11:09:18;;;;;;;14.40;4.90;;;23.70;91.20;;;;;;4254377;27;20042;-54
2023/10/13 11:11:35;;;;;;;22.48;6.15;;;23.70;91.30;;;;;;4266522;27;20404;-55
2023/10/13 11:13:50;;;;;;;12.07;4.85;;;23.80;91.10;;;;;;4266406;27;20047;-53
2023/10/13 11:15:57;;;;;;;13.73;5.90;;;23.90;91.00;;;;;;4267789;27;20496;-54
2023/10/13 11:17:59;;;;;;;11.73;5.85;;;23.90;91.20;;;;;;4248089;27;20604;-53
2023/10/13 11:20:16;;;;;;;19.73;5.53;;;23.90;90.90;;;;;;4241031;27;20047;-55
2023/10/13 11:22:36;;;;;;;21.70;5.20;;;24.00;90.90;;;;;;4261264;27;20381;-54
2023/10/13 11:24:42;;;;;;;15.27;5.68;;;24.00;90.90;;;;;;4255375;27;20039;-54
2023/10/13 11:26:50;;;;;;;14.43;5.72;;;24.00;90.80;;;;;;4253294;27;20068;-54
2023/10/13 11:28:55;;;;;;;23.25;5.85;;;24.00;90.90;;;;;;4263421;27;20046;-57
2023/10/13 11:30:58;;;;;;;13.23;5.15;;;24.00;90.90;;;;;;4260349;27;20062;-52
2023/10/13 11:33:05;;;;;;;12.73;4.90;;;24.10;90.80;;;;;;4264691;27;20038;-54
2023/10/13 11:35:20;;;;;;;16.10;5.22;;;24.20;90.70;;;;;;4263907;27;20043;-55
2023/10/13 11:37:37;;;;;;;13.68;5.95;;;24.30;90.70;;;;;;4261849;27;20047;-55
2023/10/13 11:39:42;;;;;;;15.57;5.25;;;24.40;90.80;;;;;;4261849;27;20038;-55
2023/10/13 11:41:56;;;;;;;17.20;5.40;;;24.40;90.50;;;;;;4264510;27;20341;-54
2023/10/13 11:48:14;;;;;;;14.45;4.82;;;24.40;90.40;;;;;;4259194;27;20084;-57
2023/10/13 11:50:32;;;;;;;15.82;5.45;;;24.40;90.60;;;;;;4256489;27;20095;-55
2023/10/13 11:52:35;;;;;;;18.58;5.70;;;24.40;90.60;;;;;;4263835;27;20452;-55
2023/10/13 11:54:41;;;;;;;19.13;5.97;;;24.40;90.50;;;;;;4253800;27;20072;-59
2023/10/13 11:56:44;;;;;;;15.13;5.30;;;24.40;90.50;;;;;;4249824;27;20047;-57
2023/10/13 11:58:47;;;;;;;18.98;5.63;;;24.30;90.40;;;;;;4254302;27;20039;-57
2023/10/13 12:01:19;;;;;;;15.85;5.38;;;24.30;90.50;;;;;;4252141;27;20070;-57
2023/10/13 12:06:06;;;;;;;18.20;6.85;;;24.20;90.50;;;;;;4259689;27;20532;-57
2023/10/13 12:08:21;;;;;;;12.75;4.72;;;24.30;90.80;;;;;;4245338;27;20051;-57
2023/10/13 12:10:49;;;;;;;14.23;5.85;;;24.30;90.70;;;;;;4245120;27;20043;-57
2023/10/13 12:12:54;;;;;;;12.38;5.28;;;24.30;90.40;;;;;;4259600;27;20456;-57
2023/10/13 12:14:56;;;;;;;;;;;24.40;90.70;;;;;;4262221;27;20047;-57
2023/10/13 12:17:04;;;;;;;17.45;5.10;;;24.40;90.50;;;;;;4263949;27;20413;-57
2023/10/13 12:19:11;;;;;;;21.98;5.97;;;24.40;90.80;;;;;;4263941;27;20051;-53
2023/10/13 12:21:19;;;;;;;20.42;4.78;;;24.50;90.70;;;;;;4263709;27;20042;-57
2023/10/13 12:23:31;;;;;;;15.52;5.50;;;24.50;90.50;;;;;;4264078;27;20051;-54
2023/10/13 12:25:54;;;;;;;11.18;4.63;;;24.50;90.50;;;;;;4263292;27;20051;-54
2023/10/13 12:27:57;;;;;;;14.13;5.68;;;24.50;90.60;;;;;;4258214;27;20043;-55
2023/10/13 12:30:07;;;;;;;17.80;5.90;;;24.60;90.60;;;;;;4263290;27;20095;-54
2023/10/13 12:32:12;;;;;;;13.25;5.10;;;24.60;90.60;;;;;;4264002;27;20104;-56
2023/10/13 12:34:19;;;;;;;17.35;4.88;;;24.70;90.60;;;;;;4263564;27;20074;-57
2023/10/13 12:51:07;;;;;;;21.17;5.30;;;24.90;90.40;;;;;;4176907;28;20410;-54
2023/10/13 12:53:13;;;;;;;18.65;5.60;;;24.90;90.40;;;;;;4176887;28;20056;-55
2023/10/13 12:55:20;;;;;;;16.20;5.50;;;25.10;90.70;;;;;;4164152;28;20399;-58
2023/10/13 12:57:23;;;;;;;11.57;5.65;;;25.10;90.30;;;;;;4177317;28;20049;-57
2023/10/13 12:59:28;;;;;;;20.63;5.45;;;25.10;90.20;;;;;;4160615;28;20120;-55
2023/10/13 13:01:34;;;;;;;20.13;5.40;;;25.10;90.20;;;;;;4177076;28;20049;-57
2023/10/13 13:03:36;;;;;;;16.73;5.35;;;25.10;90.20;;;;;;4177073;28;20041;-57
2023/10/13 13:05:44;;;;;;;14.55;4.88;;;25.10;90.20;;;;;;4176626;28;20806;-56
2023/10/13 13:07:47;;;;;;;15.65;5.15;;;25.00;90.30;;;;;;4177369;28;20503;-54
2023/10/13 13:09:50;;;;;;;12.38;5.40;;;25.00;90.20;;;;;;4177168;28;20044;-57
2023/10/13 13:11:57;;;;;;;17.83;5.45;;;25.00;90.30;;;;;;4176882;28;20092;-55
2023/10/13 13:14:00;;;;;;;16.08;5.13;;;25.00;90.30;;;;;;4176742;28;20597;-57
2023/10/13 13:16:03;;;;;;;18.23;4.90;;;25.00;90.20;;;;;;4176677;28;20051;-54
2023/10/13 13:18:12;;;;;;;12.30;4.80;;;24.90;90.10;;;;;;4229761;27;20042;-55
2023/10/13 13:20:28;;;;;;;16.60;6.95;;;25.00;90.40;;;;;;4261343;27;20042;-56
2023/10/13 13:22:30;;;;;;;16.27;6.82;;;25.00;90.30;;;;;;4261684;27;20089;-54
2023/10/13 13:24:32;;;;;;;12.68;5.05;;;25.00;90.40;;;;;;4263220;27;20085;-54
2023/10/13 13:26:34;;;;;;;20.92;6.22;;;25.00;90.30;;;;;;4263094;27;20050;-58